createdAt,value
2023-11-06T00:00:52.393Z,97.71
2023-11-06T00:01:52.412Z,97.71
2023-11-06T00:02:52.474Z,97.71
2023-11-06T00:03:52.381Z,97.71
2023-11-06T00:04:52.384Z,97.71
2023-11-06T00:05:52.373Z,97.91
2023-11-06T00:06:52.318Z,97.61
2023-11-06T00:07:52.376Z,97.61
2023-11-06T00:08:52.309Z,97.61
2023-11-06T00:09:52.276Z,97.50
2023-11-06T00:10:52.300Z,97.50
2023-11-06T00:11:52.254Z,97.61
2023-11-06T00:12:54.055Z,97.61
2023-11-06T00:13:52.259Z,97.61
2023-11-06T00:14:52.259Z,97.71
2023-11-06T00:15:52.227Z,97.61
2023-11-06T00:16:52.248Z,97.75
2023-11-06T00:17:52.314Z,97.65
2023-11-06T00:18:52.271Z,97.86
2023-11-06T00:19:52.189Z,97.96
2023-11-06T00:20:52.195Z,98.07
2023-11-06T00:21:52.194Z,98.16
2023-11-06T00:23:07.255Z,98.07
2023-11-06T00:23:52.492Z,98.07
2023-11-06T00:24:52.230Z,98.07
2023-11-06T00:25:52.163Z,98.07
2023-11-06T00:26:52.189Z,98.27
2023-11-06T00:27:52.124Z,98.27
2023-11-06T00:28:52.153Z,98.27
2023-11-06T00:29:52.126Z,98.27
2023-11-06T00:30:52.236Z,98.27
2023-11-06T00:32:00.045Z,98.27
2023-11-06T00:32:52.156Z,98.16
2023-11-06T00:33:52.087Z,98.16
2023-11-06T00:35:04.053Z,98.16
2023-11-06T00:35:58.860Z,98.07
2023-11-06T00:36:52.033Z,98.16
2023-11-06T00:37:52.058Z,98.27
2023-11-06T00:38:52.014Z,98.27
2023-11-06T00:39:51.976Z,98.27
2023-11-06T00:40:52.024Z,98.37
2023-11-06T00:41:51.959Z,98.27
2023-11-06T00:42:51.970Z,98.07
2023-11-06T00:43:51.959Z,97.96
2023-11-06T00:44:51.950Z,98.07
2023-11-06T00:45:51.938Z,98.07
2023-11-06T00:46:51.945Z,97.96
2023-11-06T00:47:51.968Z,97.96
2023-11-06T00:48:51.938Z,97.86
2023-11-06T00:49:51.928Z,97.86
2023-11-06T00:50:51.873Z,97.96
2023-11-06T00:51:51.856Z,97.75
2023-11-06T00:52:52.083Z,97.86
2023-11-06T00:53:51.857Z,97.86
2023-11-06T00:54:51.880Z,97.96
2023-11-06T00:55:51.861Z,97.86
2023-11-06T00:56:51.813Z,97.96
2023-11-06T00:57:51.808Z,97.96
2023-11-06T00:58:51.823Z,97.75
2023-11-06T00:59:51.784Z,97.86
2023-11-06T01:00:51.775Z,97.81
2023-11-06T01:01:51.790Z,97.81
2023-11-06T01:02:51.773Z,97.86
2023-11-06T01:03:51.797Z,97.81
2023-11-06T01:04:51.785Z,97.40
2023-11-06T01:05:51.771Z,97.50
2023-11-06T01:06:51.701Z,97.71
2023-11-06T01:07:51.713Z,97.50
2023-11-06T01:08:51.757Z,97.40
2023-11-06T01:09:51.677Z,97.30
2023-11-06T01:10:51.689Z,97.30
2023-11-06T01:11:51.687Z,97.30
2023-11-06T01:12:51.664Z,97.30
2023-11-06T01:13:51.667Z,97.30
2023-11-06T01:14:51.679Z,97.20
2023-11-06T01:15:51.621Z,97.30
2023-11-06T01:16:51.631Z,97.30
2023-11-06T01:17:51.655Z,97.40
2023-11-06T01:18:51.664Z,97.40
2023-11-06T01:19:51.628Z,97.40
2023-11-06T01:20:51.584Z,97.50
2023-11-06T01:21:51.565Z,97.61
2023-11-06T01:22:51.544Z,97.71
2023-11-06T01:23:51.550Z,97.50
2023-11-06T01:24:51.540Z,97.61
2023-11-06T01:25:51.615Z,97.61
2023-11-06T01:26:51.517Z,97.50
2023-11-06T01:27:51.505Z,97.50
2023-11-06T01:28:51.577Z,97.40
2023-11-06T01:29:51.495Z,97.40
2023-11-06T01:30:51.475Z,97.30
2023-11-06T01:31:51.490Z,97.20
2023-11-06T01:32:51.554Z,97.30
2023-11-06T01:33:51.526Z,97.40
2023-11-06T01:35:04.907Z,97.30
2023-11-06T01:35:51.434Z,97.09
2023-11-06T01:36:51.429Z,96.99
2023-11-06T01:37:51.433Z,96.79
2023-11-06T01:38:51.418Z,96.84
2023-11-06T01:39:51.438Z,96.84
2023-11-06T01:40:51.384Z,96.74
2023-11-06T01:41:51.389Z,96.44
2023-11-06T01:42:51.357Z,96.44
2023-11-06T01:43:51.408Z,96.44
2023-11-06T01:44:51.342Z,96.54
2023-11-06T01:45:51.340Z,96.64
2023-11-06T01:46:51.347Z,96.64
2023-11-06T01:47:51.406Z,96.54
2023-11-06T01:48:51.411Z,96.64
2023-11-06T01:49:51.286Z,96.74
2023-11-06T01:50:51.272Z,96.54
2023-11-06T01:51:51.281Z,96.54
2023-11-06T01:52:51.287Z,96.64
2023-11-06T01:53:51.257Z,96.74
2023-11-06T01:54:51.215Z,96.74
2023-11-06T01:55:51.282Z,96.95
2023-11-06T01:56:51.268Z,96.84
2023-11-06T01:57:51.181Z,96.95
2023-11-06T01:58:51.198Z,96.95
2023-11-06T01:59:51.190Z,96.95
2023-11-06T02:00:51.138Z,96.95
2023-11-06T02:01:51.159Z,96.95
2023-11-06T02:02:51.254Z,97.05
2023-11-06T02:03:51.210Z,97.05
2023-11-06T02:04:51.348Z,97.05
2023-11-06T02:05:51.136Z,97.05
2023-11-06T02:06:51.090Z,97.15
2023-11-06T02:07:51.232Z,97.25
2023-11-06T02:08:51.086Z,97.25
2023-11-06T02:09:51.077Z,97.25
2023-11-06T02:10:51.110Z,97.15
2023-11-06T02:11:51.038Z,97.15
2023-11-06T02:12:51.050Z,96.74
2023-11-06T02:13:51.073Z,96.95
2023-11-06T02:14:51.016Z,97.05
2023-11-06T02:15:50.983Z,96.84
2023-11-06T02:16:50.990Z,96.84
2023-11-06T02:17:51.000Z,96.84
2023-11-06T02:18:51.058Z,97.05
2023-11-06T02:19:50.970Z,96.84
2023-11-06T02:21:59.057Z,96.84
2023-11-06T02:22:57.201Z,96.84
2023-11-06T02:23:57.173Z,97.05
2023-11-06T02:24:57.134Z,97.15
2023-11-06T02:25:57.188Z,97.15
2023-11-06T02:26:57.187Z,97.20
2023-11-06T02:27:57.095Z,96.89
2023-11-06T02:28:57.133Z,96.89
2023-11-06T02:29:57.058Z,97.09
2023-11-06T02:30:57.079Z,97.20
2023-11-06T02:31:57.081Z,97.20
2023-11-06T02:32:57.273Z,97.09
2023-11-06T02:33:57.062Z,97.20
2023-11-06T02:34:57.107Z,97.20
2023-11-06T02:35:57.010Z,97.20
2023-11-06T02:36:56.983Z,97.30
2023-11-06T02:37:57.040Z,97.40
2023-11-06T02:38:56.969Z,97.40
2023-11-06T02:39:56.976Z,97.30
2023-11-06T02:40:56.971Z,97.09
2023-11-06T02:41:56.948Z,96.99
2023-11-06T02:42:56.934Z,96.99
2023-11-06T02:43:56.934Z,97.30
2023-11-06T02:44:56.922Z,97.40
2023-11-06T02:45:56.912Z,97.40
2023-11-06T02:46:56.914Z,97.30
2023-11-06T02:47:56.907Z,97.30
2023-11-06T02:48:56.896Z,97.20
2023-11-06T02:49:56.874Z,97.20
2023-11-06T02:50:56.841Z,97.40
2023-11-06T02:51:56.874Z,97.40
2023-11-06T02:52:56.875Z,97.30
2023-11-06T02:53:57.125Z,97.09
2023-11-06T02:54:56.815Z,97.09
2023-11-06T02:55:56.833Z,97.20
2023-11-06T02:56:56.790Z,97.30
2023-11-06T02:57:56.778Z,97.40
2023-11-06T02:58:56.796Z,97.30
2023-11-06T02:59:56.799Z,97.30
2023-11-06T03:00:56.763Z,97.20
2023-11-06T03:01:56.772Z,97.30
2023-11-06T03:02:56.823Z,97.30
2023-11-06T03:03:56.832Z,97.40
2023-11-06T03:04:56.789Z,97.40
2023-11-06T03:05:56.753Z,97.40
2023-11-06T03:06:56.813Z,97.40
2023-11-06T03:07:56.706Z,97.30
2023-11-06T03:08:56.678Z,97.30
2023-11-06T03:09:56.658Z,97.20
2023-11-06T03:10:56.676Z,97.20
2023-11-06T03:11:56.659Z,97.30
2023-11-06T03:12:56.629Z,97.30
2023-11-06T03:13:56.634Z,97.20
2023-11-06T03:14:56.613Z,97.30
2023-11-06T03:15:56.599Z,97.30
2023-11-06T03:16:56.675Z,97.30
2023-11-06T03:17:56.714Z,97.30
2023-11-06T03:18:56.587Z,97.40
2023-11-06T03:19:56.607Z,97.30
2023-11-06T03:20:56.545Z,97.20
2023-11-06T03:21:56.597Z,97.30
2023-11-06T03:22:56.620Z,97.40
2023-11-06T03:23:56.538Z,97.40
2023-11-06T03:24:56.525Z,97.40
2023-11-06T03:25:56.543Z,97.50
2023-11-06T03:26:56.468Z,97.50
2023-11-06T03:27:56.471Z,97.30
2023-11-06T03:28:56.553Z,97.09
2023-11-06T03:29:56.552Z,97.09
2023-11-06T03:30:56.475Z,97.20
2023-11-06T03:31:56.539Z,97.30
2023-11-06T03:32:56.454Z,97.30
2023-11-06T03:33:56.510Z,97.30
2023-11-06T03:34:56.479Z,97.45
2023-11-06T03:35:56.503Z,97.34
2023-11-06T03:36:56.398Z,97.34
2023-11-06T03:37:56.408Z,97.34
2023-11-06T03:38:56.384Z,97.24
2023-11-06T03:39:56.354Z,97.24
2023-11-06T03:40:56.446Z,97.34
2023-11-06T03:41:56.460Z,97.45
2023-11-06T03:42:56.313Z,97.45
2023-11-06T03:43:56.350Z,97.34
2023-11-06T03:44:56.327Z,97.45
2023-11-06T03:45:56.305Z,97.24
2023-11-06T03:46:56.317Z,97.24
2023-11-06T03:47:56.322Z,97.45
2023-11-06T03:48:56.312Z,97.34
2023-11-06T03:49:56.298Z,97.34
2023-11-06T03:50:56.248Z,97.34
2023-11-06T03:51:56.243Z,97.34
2023-11-06T03:52:56.285Z,97.24
2023-11-06T03:53:56.229Z,97.04
2023-11-06T03:54:57.127Z,96.83
2023-11-06T03:55:56.236Z,96.94
2023-11-06T03:56:56.185Z,97.04
2023-11-06T03:57:56.171Z,97.24
2023-11-06T03:58:58.025Z,97.34
2023-11-06T03:59:56.190Z,97.34
2023-11-06T04:00:56.140Z,97.34
2023-11-06T04:01:56.205Z,97.34
2023-11-06T04:02:56.138Z,97.34
2023-11-06T04:03:56.134Z,97.24
2023-11-06T04:04:56.157Z,97.24
2023-11-06T04:05:56.100Z,97.04
2023-11-06T04:06:56.097Z,97.14
2023-11-06T04:07:56.116Z,97.14
2023-11-06T04:08:56.056Z,97.24
2023-11-06T04:09:56.058Z,97.14
2023-11-06T04:10:56.062Z,96.94
2023-11-06T04:11:56.018Z,97.04
2023-11-06T04:12:56.024Z,96.94
2023-11-06T04:13:56.128Z,96.94
2023-11-06T04:14:55.984Z,96.94
2023-11-06T04:15:55.998Z,97.04
2023-11-06T04:16:56.023Z,97.14
2023-11-06T04:17:56.014Z,97.14
2023-11-06T04:18:55.988Z,97.14
2023-11-06T04:19:55.970Z,97.04
2023-11-06T04:20:55.944Z,96.94
2023-11-06T04:21:55.934Z,96.83
2023-11-06T04:22:55.973Z,96.83
2023-11-06T04:23:55.939Z,96.73
2023-11-06T04:24:55.951Z,96.83
2023-11-06T04:25:55.922Z,96.73
2023-11-06T04:26:55.890Z,96.42
2023-11-06T04:27:55.876Z,96.42
2023-11-06T04:28:55.879Z,96.42
2023-11-06T04:29:55.856Z,96.22
2023-11-06T04:30:55.868Z,96.22
2023-11-06T04:31:55.850Z,96.22
2023-11-06T04:32:55.834Z,96.12
2023-11-06T04:33:55.877Z,96.22
2023-11-06T04:34:55.827Z,96.32
2023-11-06T04:35:55.799Z,96.22
2023-11-06T04:36:55.783Z,96.22
2023-11-06T04:37:55.860Z,96.22
2023-11-06T04:38:55.753Z,96.42
2023-11-06T04:39:55.772Z,96.53
2023-11-06T04:40:55.775Z,96.42
2023-11-06T04:41:55.723Z,96.22
2023-11-06T04:42:55.709Z,96.42
2023-11-06T04:43:55.737Z,96.63
2023-11-06T04:44:55.686Z,96.63
2023-11-06T04:45:55.770Z,96.73
2023-11-06T04:46:55.699Z,96.73
2023-11-06T04:47:55.778Z,96.73
2023-11-06T04:48:55.701Z,96.78
2023-11-06T04:49:55.770Z,96.73
2023-11-06T04:50:55.647Z,96.88
2023-11-06T04:51:55.622Z,96.83
2023-11-06T04:52:55.607Z,96.98
2023-11-06T04:53:55.614Z,96.94
2023-11-06T04:54:55.579Z,96.88
2023-11-06T04:55:55.598Z,96.88
2023-11-06T04:56:55.565Z,96.78
2023-11-06T04:57:55.580Z,96.88
2023-11-06T04:58:55.571Z,96.88
2023-11-06T04:59:55.536Z,96.98
2023-11-06T05:00:55.659Z,97.08
2023-11-06T05:01:55.534Z,97.19
2023-11-06T05:02:55.541Z,97.19
2023-11-06T05:03:55.562Z,97.29
2023-11-06T05:04:55.501Z,97.29
2023-11-06T05:05:55.587Z,97.39
2023-11-06T05:06:55.519Z,97.39
2023-11-06T05:07:55.479Z,97.29
2023-11-06T05:08:55.474Z,97.44
2023-11-06T05:09:55.442Z,97.54
2023-11-06T05:10:55.436Z,97.64
2023-11-06T05:11:55.437Z,97.44
2023-11-06T05:12:55.419Z,97.54
2023-11-06T05:13:55.399Z,97.64
2023-11-06T05:14:55.402Z,97.74
2023-11-06T05:15:55.400Z,97.74
2023-11-06T05:16:55.438Z,97.85
2023-11-06T05:17:55.465Z,97.85
2023-11-06T05:18:55.359Z,97.85
2023-11-06T05:19:55.372Z,97.85
2023-11-06T05:20:55.318Z,97.85
2023-11-06T05:21:55.356Z,97.95
2023-11-06T05:22:55.316Z,97.85
2023-11-06T05:23:55.296Z,97.85
2023-11-06T05:24:55.309Z,97.95
2023-11-06T05:25:55.299Z,97.95
2023-11-06T05:26:55.319Z,97.95
2023-11-06T05:27:55.249Z,97.85
2023-11-06T05:28:55.237Z,97.95
2023-11-06T05:29:55.239Z,97.89
2023-11-06T05:30:55.231Z,97.74
2023-11-06T05:31:55.249Z,97.79
2023-11-06T05:32:55.222Z,97.85
2023-11-06T05:33:55.222Z,97.79
2023-11-06T05:34:55.232Z,97.85
2023-11-06T05:35:55.221Z,97.89
2023-11-06T05:36:55.164Z,97.79
2023-11-06T05:37:55.217Z,97.79
2023-11-06T05:38:55.147Z,97.74
2023-11-06T05:39:55.157Z,97.74
2023-11-06T05:40:55.170Z,97.79
2023-11-06T05:41:55.103Z,97.74
2023-11-06T05:42:55.363Z,97.69
2023-11-06T05:43:55.110Z,97.64
2023-11-06T05:44:55.069Z,97.69
2023-11-06T05:45:55.133Z,97.54
2023-11-06T05:46:55.092Z,97.44
2023-11-06T05:47:55.102Z,97.44
2023-11-06T05:48:55.091Z,97.23
2023-11-06T05:49:55.070Z,97.13
2023-11-06T05:50:55.026Z,97.23
2023-11-06T05:51:55.019Z,97.28
2023-11-06T05:52:55.030Z,97.23
2023-11-06T05:53:54.917Z,97.23
2023-11-06T05:54:54.974Z,97.48
2023-11-06T05:55:54.936Z,97.48
2023-11-06T05:56:54.920Z,97.48
2023-11-06T05:57:54.906Z,97.58
2023-11-06T05:58:54.929Z,97.44
2023-11-06T05:59:54.868Z,97.33
2023-11-06T06:00:54.939Z,97.23
2023-11-06T06:01:54.905Z,97.03
2023-11-06T06:02:54.897Z,96.92
2023-11-06T06:03:54.935Z,96.72
2023-11-06T06:04:54.852Z,96.72
2023-11-06T06:05:54.877Z,96.62
2023-11-06T06:06:54.799Z,96.72
2023-11-06T06:07:54.824Z,96.82
2023-11-06T06:08:54.790Z,96.72
2023-11-06T06:09:54.980Z,96.82
2023-11-06T06:10:54.825Z,96.72
2023-11-06T06:11:54.737Z,96.82
2023-11-06T06:12:54.774Z,96.82
2023-11-06T06:13:54.793Z,96.82
2023-11-06T06:14:54.746Z,96.82
2023-11-06T06:15:54.722Z,96.82
2023-11-06T06:16:54.761Z,96.82
2023-11-06T06:17:54.771Z,96.92
2023-11-06T06:18:54.754Z,97.03
2023-11-06T06:19:54.671Z,97.03
2023-11-06T06:20:54.678Z,96.92
2023-11-06T06:21:54.710Z,96.92
2023-11-06T06:22:54.905Z,96.82
2023-11-06T06:23:54.656Z,96.72
2023-11-06T06:24:54.624Z,96.82
2023-11-06T06:25:54.625Z,96.67
2023-11-06T06:26:54.600Z,96.67
2023-11-06T06:27:54.630Z,96.67
2023-11-06T06:28:54.616Z,96.57
2023-11-06T06:29:54.571Z,96.57
2023-11-06T06:30:54.581Z,96.37
2023-11-06T06:31:54.639Z,96.37
2023-11-06T06:32:54.806Z,96.26
2023-11-06T06:33:54.668Z,96.16
2023-11-06T06:34:54.573Z,96.16
2023-11-06T06:35:54.533Z,96.16
2023-11-06T06:36:54.505Z,96.16
2023-11-06T06:37:54.595Z,95.95
2023-11-06T06:38:54.526Z,95.95
2023-11-06T06:39:54.527Z,95.81
2023-11-06T06:40:54.570Z,95.81
2023-11-06T06:41:54.523Z,95.91
2023-11-06T06:42:54.437Z,95.91
2023-11-06T06:43:54.668Z,95.91
2023-11-06T06:44:54.426Z,95.81
2023-11-06T06:45:54.424Z,95.81
2023-11-06T06:46:54.446Z,96.01
2023-11-06T06:47:54.475Z,96.01
2023-11-06T06:48:54.434Z,96.12
2023-11-06T06:49:54.387Z,96.01
2023-11-06T06:50:54.392Z,96.01
2023-11-06T06:51:54.362Z,95.91
2023-11-06T06:52:54.388Z,95.70
2023-11-06T06:53:54.366Z,95.61
2023-11-06T06:54:54.337Z,95.61
2023-11-06T06:55:54.320Z,95.61
2023-11-06T06:56:54.285Z,95.70
2023-11-06T06:57:54.556Z,95.61
2023-11-06T06:58:54.303Z,95.50
2023-11-06T06:59:54.265Z,95.50
2023-11-06T07:00:54.269Z,95.70
2023-11-06T07:01:54.451Z,95.70
2023-11-06T07:02:54.358Z,95.70
2023-11-06T07:03:54.298Z,95.81
2023-11-06T07:04:54.351Z,95.61
2023-11-06T07:05:54.337Z,95.20
2023-11-06T07:06:54.279Z,95.29
2023-11-06T07:07:55.041Z,95.40
2023-11-06T07:08:54.216Z,95.40
2023-11-06T07:09:54.394Z,95.40
2023-11-06T07:10:54.190Z,95.40
2023-11-06T07:11:54.663Z,95.09
2023-11-06T07:12:54.456Z,95.05
2023-11-06T07:13:58.158Z,95.05
2023-11-06T07:14:54.170Z,94.95
2023-11-06T07:15:55.111Z,94.74
2023-11-06T07:16:54.423Z,94.84
2023-11-06T07:17:54.171Z,94.74
2023-11-06T07:18:54.086Z,94.74
2023-11-06T07:19:54.169Z,94.95
2023-11-06T07:20:54.102Z,95.05
2023-11-06T07:21:54.097Z,95.15
2023-11-06T07:22:54.037Z,94.33
2023-11-06T07:23:54.088Z,94.43
2023-11-06T07:24:54.067Z,94.43
2023-11-06T07:25:54.041Z,94.43
2023-11-06T07:26:54.054Z,94.33
2023-11-06T07:27:54.070Z,94.33
2023-11-06T07:28:54.002Z,94.43
2023-11-06T07:29:54.002Z,94.23
2023-11-06T07:30:54.007Z,94.33
2023-11-06T07:31:54.281Z,94.02
2023-11-06T07:32:54.164Z,94.23
2023-11-06T07:33:54.047Z,94.43
2023-11-06T07:34:53.932Z,94.12
2023-11-06T07:35:53.994Z,94.12
2023-11-06T07:36:53.910Z,94.23
2023-11-06T07:37:53.939Z,94.12
2023-11-06T07:38:53.876Z,94.02
2023-11-06T07:39:53.867Z,93.92
2023-11-06T07:40:53.865Z,93.30
2023-11-06T07:41:53.890Z,93.20
2023-11-06T07:42:53.852Z,93.16
2023-11-06T07:43:53.845Z,92.96
2023-11-06T07:44:53.814Z,92.85
2023-11-06T07:45:53.811Z,92.85
2023-11-06T07:46:53.792Z,92.85
2023-11-06T07:47:53.922Z,92.96
2023-11-06T07:48:53.816Z,92.96
2023-11-06T07:49:53.750Z,92.75
2023-11-06T07:50:53.763Z,92.44
2023-11-06T07:51:53.774Z,92.65
2023-11-06T07:52:53.754Z,92.34
2023-11-06T07:53:53.734Z,91.93
2023-11-06T07:54:53.717Z,92.24
2023-11-06T07:55:53.731Z,92.24
2023-11-06T07:56:53.714Z,92.24
2023-11-06T07:57:53.750Z,92.34
2023-11-06T07:58:53.690Z,92.44
2023-11-06T07:59:53.675Z,92.34
2023-11-06T08:00:54.055Z,92.24
2023-11-06T08:01:53.650Z,92.24
2023-11-06T08:02:53.719Z,92.03
2023-11-06T08:03:53.645Z,92.14
2023-11-06T08:04:53.600Z,92.44
2023-11-06T08:05:53.720Z,92.55
2023-11-06T08:06:53.651Z,92.34
2023-11-06T08:07:53.599Z,92.55
2023-11-06T08:08:53.635Z,92.44
2023-11-06T08:09:53.614Z,92.34
2023-11-06T08:10:53.553Z,92.19
2023-11-06T08:11:53.640Z,91.83
2023-11-06T08:12:53.541Z,91.93
2023-11-06T08:13:53.580Z,91.58
2023-11-06T08:14:53.602Z,91.89
2023-11-06T08:15:53.515Z,91.27
2023-11-06T08:16:54.003Z,91.38
2023-11-06T08:17:53.538Z,91.38
2023-11-06T08:18:53.491Z,91.27
2023-11-06T08:19:53.427Z,90.97
2023-11-06T08:20:53.485Z,90.45
2023-11-06T08:21:53.447Z,90.36
2023-11-06T08:22:53.405Z,90.77
2023-11-06T08:23:53.936Z,90.56
2023-11-06T08:24:53.940Z,90.97
2023-11-06T08:25:53.394Z,91.07
2023-11-06T08:26:53.445Z,90.77
2023-11-06T08:27:53.405Z,90.66
2023-11-06T08:28:53.392Z,90.86
2023-11-06T08:29:53.342Z,90.41
2023-11-06T08:30:53.345Z,90.31
2023-11-06T08:31:53.330Z,90.11
2023-11-06T08:32:53.445Z,90.11
2023-11-06T08:33:53.467Z,90.21
2023-11-06T08:34:53.303Z,89.39
2023-11-06T08:35:53.284Z,89.59
2023-11-06T08:36:53.322Z,89.39
2023-11-06T08:37:53.288Z,89.29
2023-11-06T08:38:53.274Z,89.29
2023-11-06T08:39:53.237Z,88.88
2023-11-06T08:40:53.236Z,88.88
2023-11-06T08:41:53.265Z,88.88
2023-11-06T08:42:53.262Z,88.68
2023-11-06T08:43:53.221Z,88.98
2023-11-06T08:44:53.219Z,89.39
2023-11-06T08:45:53.192Z,88.98
2023-11-06T08:46:53.234Z,88.88
2023-11-06T08:47:53.198Z,89.39
2023-11-06T08:48:53.267Z,88.57
2023-11-06T08:49:53.153Z,87.85
2023-11-06T08:50:53.196Z,87.92
2023-11-06T08:51:53.150Z,88.12
2023-11-06T08:52:53.944Z,88.12
2023-11-06T08:53:54.717Z,87.92
2023-11-06T08:54:53.180Z,87.92
2023-11-06T08:55:53.070Z,87.82
2023-11-06T08:56:53.075Z,88.02
2023-11-06T08:57:53.088Z,87.30
2023-11-06T08:58:53.069Z,87.30
2023-11-06T08:59:53.037Z,87.20
2023-11-06T09:00:53.076Z,87.30
2023-11-06T09:01:53.040Z,87.37
2023-11-06T09:02:53.083Z,87.57
2023-11-06T09:03:53.325Z,87.37
2023-11-06T09:04:53.249Z,87.06
2023-11-06T09:05:53.070Z,87.16
2023-11-06T09:06:53.107Z,87.06
2023-11-06T09:07:53.040Z,87.26
2023-11-06T09:08:52.998Z,87.47
2023-11-06T09:09:52.927Z,87.67
2023-11-06T09:10:52.967Z,87.57
2023-11-06T09:11:52.924Z,87.77
2023-11-06T09:12:53.099Z,86.65
2023-11-06T09:13:52.957Z,86.76
2023-11-06T09:14:52.898Z,87.02
2023-11-06T09:15:52.879Z,86.51
2023-11-06T09:16:52.895Z,87.02
2023-11-06T09:17:53.030Z,86.30
2023-11-06T09:18:53.144Z,85.89
2023-11-06T09:19:52.833Z,85.79
2023-11-06T09:20:52.840Z,85.49
2023-11-06T09:21:53.088Z,85.69
2023-11-06T09:22:52.843Z,85.89
2023-11-06T09:23:52.975Z,84.16
2023-11-06T09:24:52.802Z,84.57
2023-11-06T09:25:52.757Z,84.77
2023-11-06T09:26:52.751Z,85.08
2023-11-06T09:27:52.762Z,85.59
2023-11-06T09:28:52.762Z,85.69
2023-11-06T09:29:52.747Z,85.38
2023-11-06T09:30:52.725Z,85.35
2023-11-06T09:31:52.695Z,85.04
2023-11-06T09:32:52.804Z,84.42
2023-11-06T09:33:52.743Z,84.63
2023-11-06T09:34:52.675Z,84.12
2023-11-06T09:35:52.663Z,83.51
2023-11-06T09:36:52.644Z,84.22
2023-11-06T09:37:52.699Z,83.61
2023-11-06T09:38:52.684Z,83.57
2023-11-06T09:39:52.642Z,82.96
2023-11-06T09:40:52.653Z,83.06
2023-11-06T09:41:52.618Z,82.96
2023-11-06T09:42:52.618Z,82.55
2023-11-06T09:43:53.322Z,82.55
2023-11-06T09:44:52.629Z,82.86
2023-11-06T09:45:52.607Z,82.96
2023-11-06T09:46:52.562Z,83.16
2023-11-06T09:47:52.752Z,82.75
2023-11-06T09:48:53.139Z,83.26
2023-11-06T09:49:53.128Z,83.57
2023-11-06T09:50:52.607Z,83.57
2023-11-06T09:51:52.543Z,83.67
2023-11-06T09:52:52.545Z,82.35
2023-11-06T09:53:52.483Z,83.16
2023-11-06T09:54:52.494Z,82.55
2023-11-06T09:55:52.465Z,82.86
2023-11-06T09:56:52.448Z,82.65
2023-11-06T09:57:52.477Z,82.04
2023-11-06T09:58:52.422Z,82.14
2023-11-06T09:59:52.410Z,82.96
2023-11-06T10:00:52.476Z,82.45
2023-11-06T10:01:52.411Z,82.04
2023-11-06T10:02:52.505Z,82.75
2023-11-06T10:03:52.465Z,82.55
2023-11-06T10:04:52.391Z,81.84
2023-11-06T10:05:52.416Z,82.55
2023-11-06T10:06:52.352Z,82.24
2023-11-06T10:07:52.559Z,82.41
2023-11-06T10:08:52.603Z,82.21
2023-11-06T10:09:52.349Z,81.49
2023-11-06T10:10:52.475Z,81.70
2023-11-06T10:11:52.338Z,81.70
2023-11-06T10:12:52.295Z,82.00
2023-11-06T10:13:52.282Z,82.31
2023-11-06T10:14:52.279Z,82.00
2023-11-06T10:15:52.263Z,81.70
2023-11-06T10:16:52.321Z,81.18
2023-11-06T10:17:52.458Z,81.39
2023-11-06T10:18:52.509Z,81.59
2023-11-06T10:19:52.238Z,81.90
2023-11-06T10:20:52.382Z,81.90
2023-11-06T10:21:52.233Z,81.70
2023-11-06T10:22:52.235Z,82.41
2023-11-06T10:23:52.194Z,82.00
2023-11-06T10:24:52.332Z,82.10
2023-11-06T10:25:52.370Z,81.59
2023-11-06T10:26:52.208Z,81.80
2023-11-06T10:27:52.191Z,81.70
2023-11-06T10:28:52.159Z,81.70
2023-11-06T10:29:52.159Z,81.84
2023-11-06T10:30:52.151Z,82.55
2023-11-06T10:31:52.169Z,82.41
2023-11-06T10:32:52.167Z,82.51
2023-11-06T10:33:52.215Z,82.21
2023-11-06T10:34:52.911Z,82.00
2023-11-06T10:35:52.140Z,81.59
2023-11-06T10:36:52.108Z,80.78
2023-11-06T10:37:52.050Z,80.88
2023-11-06T10:38:52.053Z,80.98
2023-11-06T10:39:52.027Z,81.29
2023-11-06T10:40:51.973Z,81.09
2023-11-06T10:41:52.016Z,81.18
2023-11-06T10:42:52.124Z,81.49
2023-11-06T10:43:59.471Z,81.80
2023-11-06T10:44:51.957Z,81.29
2023-11-06T10:45:51.944Z,81.59
2023-11-06T10:46:51.916Z,81.49
2023-11-06T10:47:52.046Z,81.76
2023-11-06T10:48:52.069Z,81.15
2023-11-06T10:49:51.983Z,80.94
2023-11-06T10:50:51.884Z,80.80
2023-11-06T10:51:51.867Z,80.40
2023-11-06T10:52:51.868Z,79.68
2023-11-06T10:53:51.888Z,79.89
2023-11-06T10:54:51.852Z,79.48
2023-11-06T10:55:51.850Z,79.17
2023-11-06T10:56:51.844Z,78.87
2023-11-06T10:57:51.867Z,79.14
2023-11-06T10:58:51.810Z,79.14
2023-11-06T10:59:51.800Z,78.28
2023-11-06T11:00:51.813Z,78.08
2023-11-06T11:01:51.778Z,78.49
2023-11-06T11:02:51.919Z,77.26
2023-11-06T11:03:51.842Z,76.56
2023-11-06T11:04:51.769Z,76.45
2023-11-06T11:05:51.785Z,77.57
2023-11-06T11:06:51.740Z,78.08
2023-11-06T11:07:51.711Z,78.59
2023-11-06T11:08:51.693Z,77.87
2023-11-06T11:09:51.763Z,78.28
2023-11-06T11:10:51.709Z,77.61
2023-11-06T11:11:51.759Z,77.87
2023-11-06T11:12:51.660Z,77.57
2023-11-06T11:13:51.623Z,78.19
2023-11-06T11:14:51.667Z,78.39
2023-11-06T11:15:51.644Z,77.78
2023-11-06T11:16:51.625Z,77.47
2023-11-06T11:17:51.752Z,76.86
2023-11-06T11:18:51.701Z,77.71
2023-11-06T11:19:51.629Z,77.40
2023-11-06T11:20:51.661Z,78.12
2023-11-06T11:21:51.558Z,78.32
2023-11-06T11:22:51.573Z,78.63
2023-11-06T11:23:51.558Z,78.16
2023-11-06T11:24:51.521Z,78.46
2023-11-06T11:25:51.539Z,78.26
2023-11-06T11:26:51.540Z,78.87
2023-11-06T11:27:51.824Z,79.07
2023-11-06T11:28:51.486Z,79.17
2023-11-06T11:29:51.453Z,78.87
2023-11-06T11:30:51.574Z,79.27
2023-11-06T11:31:51.464Z,79.58
2023-11-06T11:32:51.833Z,79.27
2023-11-06T11:33:51.555Z,79.48
2023-11-06T11:34:51.441Z,79.48
2023-11-06T11:35:51.422Z,79.41
2023-11-06T11:36:51.414Z,79.62
2023-11-06T11:37:51.381Z,79.93
2023-11-06T11:38:51.380Z,79.93
2023-11-06T11:39:51.380Z,79.93
2023-11-06T11:40:51.362Z,79.11
2023-11-06T11:41:51.358Z,79.72
2023-11-06T11:42:51.368Z,79.89
2023-11-06T11:43:51.348Z,79.68
2023-11-06T11:44:51.367Z,80.09
2023-11-06T11:45:51.366Z,79.99
2023-11-06T11:46:51.320Z,80.09
2023-11-06T11:47:51.362Z,79.52
2023-11-06T11:48:51.350Z,79.21
2023-11-06T11:49:51.315Z,79.32
2023-11-06T11:50:51.281Z,79.32
2023-11-06T11:51:51.244Z,79.41
2023-11-06T11:52:51.260Z,79.82
2023-11-06T11:53:51.245Z,80.13
2023-11-06T11:54:51.252Z,79.99
2023-11-06T11:55:51.204Z,79.48
2023-11-06T11:56:51.201Z,79.58
2023-11-06T11:57:51.196Z,79.48
2023-11-06T11:58:51.172Z,79.68
2023-11-06T11:59:51.160Z,80.19
2023-11-06T12:00:51.125Z,80.60
2023-11-06T12:01:51.145Z,80.66
2023-11-06T12:02:51.235Z,79.48
2023-11-06T12:03:51.196Z,79.48
2023-11-06T12:04:51.112Z,80.09
2023-11-06T12:05:51.701Z,80.50
2023-11-06T12:06:51.105Z,79.58
2023-11-06T12:07:51.137Z,79.99
2023-11-06T12:08:51.080Z,80.50
2023-11-06T12:09:51.127Z,80.40
2023-11-06T12:10:51.074Z,80.80
2023-11-06T12:11:51.046Z,81.11
2023-11-06T12:12:51.069Z,80.64
2023-11-06T12:13:51.005Z,80.64
2023-11-06T12:14:51.064Z,80.54
2023-11-06T12:15:51.080Z,80.64
2023-11-06T12:16:55.649Z,81.15
2023-11-06T12:17:51.227Z,81.15
2023-11-06T12:18:51.084Z,81.15
2023-11-06T12:19:51.053Z,81.04
2023-11-06T12:20:50.995Z,81.25
2023-11-06T12:21:50.968Z,80.84
2023-11-06T12:22:51.116Z,81.15
2023-11-06T12:23:50.940Z,80.84
2023-11-06T12:24:50.928Z,81.15
2023-11-06T12:25:50.902Z,81.18
2023-11-06T12:26:50.901Z,81.66
2023-11-06T12:27:50.862Z,81.66
2023-11-06T12:28:50.868Z,81.45
2023-11-06T12:29:50.867Z,81.56
2023-11-06T12:30:50.856Z,81.76
2023-11-06T12:31:50.846Z,81.96
2023-11-06T12:32:51.472Z,80.98
2023-11-06T12:33:50.911Z,80.88
2023-11-06T12:34:50.821Z,81.35
2023-11-06T12:35:50.926Z,80.84
2023-11-06T12:36:50.772Z,79.72
2023-11-06T12:37:50.780Z,79.27
2023-11-06T12:38:50.838Z,78.16
2023-11-06T12:39:50.745Z,77.85
2023-11-06T12:40:50.729Z,78.36
2023-11-06T12:41:50.759Z,78.16
2023-11-06T12:42:50.728Z,77.81
2023-11-06T12:43:50.683Z,77.30
2023-11-06T12:44:51.376Z,77.91
2023-11-06T12:45:51.455Z,77.20
2023-11-06T12:47:01.468Z,77.81
2023-11-06T12:47:50.759Z,77.40
2023-11-06T12:48:50.722Z,77.37
2023-11-06T12:49:50.660Z,77.67
2023-11-06T12:50:50.693Z,77.57
2023-11-06T12:51:50.626Z,77.26
2023-11-06T12:52:50.613Z,76.65
2023-11-06T12:53:50.672Z,75.95